sensor_id;sensor_type;location;lat;lon;timestamp;P1;durP1;ratioP1;P2;durP2;ratioP2
71965;SDS011;59836;52.132;5.442;2023-05-07T00:02:16;7.35;;;5.63;;
71965;SDS011;59836;52.132;5.442;2023-05-07T00:04:42;7.35;;;5.82;;
71965;SDS011;59836;52.132;5.442;2023-05-07T00:07:10;7.53;;;5.95;;
71965;SDS011;59836;52.132;5.442;2023-05-07T00:09:36;6.80;;;6.20;;
71965;SDS011;59836;52.132;5.442;2023-05-07T00:12:03;6.53;;;4.93;;
71965;SDS011;59836;52.132;5.442;2023-05-07T00:14:29;7.63;;;5.47;;
71965;SDS011;59836;52.132;5.442;2023-05-07T00:16:56;6.88;;;6.00;;
71965;SDS011;59836;52.132;5.442;2023-05-07T00:19:23;8.60;;;5.80;;
71965;SDS011;59836;52.132;5.442;2023-05-07T00:21:49;7.40;;;5.40;;
71965;SDS011;59836;52.132;5.442;2023-05-07T00:24:16;6.60;;;5.90;;
71965;SDS011;59836;52.132;5.442;2023-05-07T00:26:42;7.03;;;5.22;;
71965;SDS011;59836;52.132;5.442;2023-05-07T00:29:09;6.70;;;5.88;;
71965;SDS011;59836;52.132;5.442;2023-05-07T00:31:35;7.63;;;5.47;;
71965;SDS011;59836;52.132;5.442;2023-05-07T00:34:01;6.55;;;5.75;;
71965;SDS011;59836;52.132;5.442;2023-05-07T00:36:28;5.77;;;4.77;;
71965;SDS011;59836;52.132;5.442;2023-05-07T00:38:56;6.25;;;5.57;;
71965;SDS011;59836;52.132;5.442;2023-05-07T00:41:23;8.48;;;4.75;;
71965;SDS011;59836;52.132;5.442;2023-05-07T00:43:49;6.75;;;4.78;;
71965;SDS011;59836;52.132;5.442;2023-05-07T00:46:18;7.15;;;5.63;;
71965;SDS011;59836;52.132;5.442;2023-05-07T00:48:47;7.10;;;5.30;;
71965;SDS011;59836;52.132;5.442;2023-05-07T00:51:15;7.78;;;5.97;;
71965;SDS011;59836;52.132;5.442;2023-05-07T00:53:43;5.25;;;4.63;;
71965;SDS011;59836;52.132;5.442;2023-05-07T00:56:09;7.43;;;6.10;;
71965;SDS011;59836;52.132;5.442;2023-05-07T00:58:37;7.22;;;6.10;;
71965;SDS011;59836;52.132;5.442;2023-05-07T01:01:04;7.97;;;6.20;;
71965;SDS011;59836;52.132;5.442;2023-05-07T01:03:30;7.25;;;5.68;;
71965;SDS011;59836;52.132;5.442;2023-05-07T01:05:57;7.53;;;5.43;;
71965;SDS011;59836;52.132;5.442;2023-05-07T01:08:26;7.05;;;6.15;;
71965;SDS011;59836;52.132;5.442;2023-05-07T01:10:55;6.47;;;5.60;;
71965;SDS011;59836;52.132;5.442;2023-05-07T01:13:23;7.97;;;5.93;;
71965;SDS011;59836;52.132;5.442;2023-05-07T01:15:51;7.60;;;5.88;;
71965;SDS011;59836;52.132;5.442;2023-05-07T01:18:17;7.13;;;5.68;;
71965;SDS011;59836;52.132;5.442;2023-05-07T01:20:44;6.78;;;6.07;;
71965;SDS011;59836;52.132;5.442;2023-05-07T01:23:11;8.40;;;6.15;;
71965;SDS011;59836;52.132;5.442;2023-05-07T01:25:38;7.13;;;5.80;;
71965;SDS011;59836;52.132;5.442;2023-05-07T01:28:04;7.05;;;6.32;;
71965;SDS011;59836;52.132;5.442;2023-05-07T01:30:31;7.10;;;5.80;;
71965;SDS011;59836;52.132;5.442;2023-05-07T01:33:04;7.95;;;5.78;;
71965;SDS011;59836;52.132;5.442;2023-05-07T01:35:39;8.15;;;6.47;;
71965;SDS011;59836;52.132;5.442;2023-05-07T01:38:08;9.13;;;6.47;;
71965;SDS011;59836;52.132;5.442;2023-05-07T01:40:34;7.22;;;6.53;;
71965;SDS011;59836;52.132;5.442;2023-05-07T01:43:04;7.88;;;6.38;;
71965;SDS011;59836;52.132;5.442;2023-05-07T01:45:31;7.10;;;5.18;;
71965;SDS011;59836;52.132;5.442;2023-05-07T01:47:59;8.75;;;6.25;;
71965;SDS011;59836;52.132;5.442;2023-05-07T01:50:27;6.77;;;6.07;;
71965;SDS011;59836;52.132;5.442;2023-05-07T01:52:54;7.75;;;6.88;;
71965;SDS011;59836;52.132;5.442;2023-05-07T01:55:20;7.30;;;6.35;;
71965;SDS011;59836;52.132;5.442;2023-05-07T01:57:47;7.20;;;5.93;;
71965;SDS011;59836;52.132;5.442;2023-05-07T02:00:13;7.53;;;6.53;;
71965;SDS011;59836;52.132;5.442;2023-05-07T02:02:40;8.40;;;6.23;;
71965;SDS011;59836;52.132;5.442;2023-05-07T02:05:06;8.63;;;6.25;;
71965;SDS011;59836;52.132;5.442;2023-05-07T02:07:33;7.55;;;6.25;;
71965;SDS011;59836;52.132;5.442;2023-05-07T02:09:59;11.35;;;6.68;;
71965;SDS011;59836;52.132;5.442;2023-05-07T02:12:26;7.82;;;6.63;;
71965;SDS011;59836;52.132;5.442;2023-05-07T02:14:52;7.97;;;6.73;;
71965;SDS011;59836;52.132;5.442;2023-05-07T02:17:18;7.45;;;6.63;;
71965;SDS011;59836;52.132;5.442;2023-05-07T02:19:45;8.00;;;6.25;;
71965;SDS011;59836;52.132;5.442;2023-05-07T02:22:11;8.73;;;7.18;;
71965;SDS011;59836;52.132;5.442;2023-05-07T02:24:38;9.82;;;7.10;;
71965;SDS011;59836;52.132;5.442;2023-05-07T02:27:04;8.03;;;6.60;;
71965;SDS011;59836;52.132;5.442;2023-05-07T02:29:30;7.90;;;7.10;;
71965;SDS011;59836;52.132;5.442;2023-05-07T02:31:57;7.95;;;6.90;;
71965;SDS011;59836;52.132;5.442;2023-05-07T02:34:23;8.10;;;7.30;;
71965;SDS011;59836;52.132;5.442;2023-05-07T02:36:50;8.13;;;7.32;;
71965;SDS011;59836;52.132;5.442;2023-05-07T02:39:16;7.97;;;7.17;;
71965;SDS011;59836;52.132;5.442;2023-05-07T02:41:42;8.73;;;7.18;;
71965;SDS011;59836;52.132;5.442;2023-05-07T02:44:09;8.05;;;7.10;;
71965;SDS011;59836;52.132;5.442;2023-05-07T02:46:35;8.20;;;7.40;;
71965;SDS011;59836;52.132;5.442;2023-05-07T02:49:02;7.68;;;6.90;;
71965;SDS011;59836;52.132;5.442;2023-05-07T02:51:29;8.40;;;7.47;;
71965;SDS011;59836;52.132;5.442;2023-05-07T02:53:56;9.93;;;7.38;;
71965;SDS011;59836;52.132;5.442;2023-05-07T02:56:25;8.50;;;7.10;;
71965;SDS011;59836;52.132;5.442;2023-05-07T02:58:52;9.82;;;7.28;;
71965;SDS011;59836;52.132;5.442;2023-05-07T03:01:18;7.90;;;6.72;;
71965;SDS011;59836;52.132;5.442;2023-05-07T03:03:44;8.30;;;7.03;;
71965;SDS011;59836;52.132;5.442;2023-05-07T03:06:11;10.45;;;7.53;;
71965;SDS011;59836;52.132;5.442;2023-05-07T03:08:37;10.48;;;7.07;;
71965;SDS011;59836;52.132;5.442;2023-05-07T03:11:04;8.18;;;7.07;;
71965;SDS011;59836;52.132;5.442;2023-05-07T03:13:30;7.53;;;6.82;;
71965;SDS011;59836;52.132;5.442;2023-05-07T03:15:57;7.73;;;6.83;;
71965;SDS011;59836;52.132;5.442;2023-05-07T03:18:23;9.45;;;7.13;;
71965;SDS011;59836;52.132;5.442;2023-05-07T03:20:50;9.65;;;7.20;;
71965;SDS011;59836;52.132;5.442;2023-05-07T03:23:16;8.10;;;7.00;;
71965;SDS011;59836;52.132;5.442;2023-05-07T03:25:42;8.70;;;7.65;;
71965;SDS011;59836;52.132;5.442;2023-05-07T03:28:09;9.70;;;7.20;;
71965;SDS011;59836;52.132;5.442;2023-05-07T03:30:35;12.30;;;7.13;;
71965;SDS011;59836;52.132;5.442;2023-05-07T03:33:02;12.57;;;7.20;;
71965;SDS011;59836;52.132;5.442;2023-05-07T03:35:28;8.80;;;7.20;;
71965;SDS011;59836;52.132;5.442;2023-05-07T03:37:54;9.50;;;7.07;;
71965;SDS011;59836;52.132;5.442;2023-05-07T03:40:21;9.70;;;7.83;;
71965;SDS011;59836;52.132;5.442;2023-05-07T03:42:47;10.27;;;7.45;;
71965;SDS011;59836;52.132;5.442;2023-05-07T03:45:13;8.15;;;6.90;;
71965;SDS011;59836;52.132;5.442;2023-05-07T03:47:40;8.85;;;6.93;;
71965;SDS011;59836;52.132;5.442;2023-05-07T03:50:07;12.35;;;7.05;;
71965;SDS011;59836;52.132;5.442;2023-05-07T03:52:33;8.07;;;6.77;;
71965;SDS011;59836;52.132;5.442;2023-05-07T03:55:00;9.43;;;7.63;;
71965;SDS011;59836;52.132;5.442;2023-05-07T03:57:26;9.02;;;7.90;;
71965;SDS011;59836;52.132;5.442;2023-05-07T03:59:53;8.55;;;7.70;;
71965;SDS011;59836;52.132;5.442;2023-05-07T04:02:19;8.73;;;7.38;;
71965;SDS011;59836;52.132;5.442;2023-05-07T04:04:47;7.60;;;6.70;;
71965;SDS011;59836;52.132;5.442;2023-05-07T04:07:14;9.45;;;7.03;;
71965;SDS011;59836;52.132;5.442;2023-05-07T04:09:41;11.60;;;7.95;;
71965;SDS011;59836;52.132;5.442;2023-05-07T04:12:07;9.82;;;6.70;;
71965;SDS011;59836;52.132;5.442;2023-05-07T04:14:34;9.13;;;8.10;;
71965;SDS011;59836;52.132;5.442;2023-05-07T04:17:00;10.23;;;8.43;;
71965;SDS011;59836;52.132;5.442;2023-05-07T04:19:27;9.75;;;8.40;;
71965;SDS011;59836;52.132;5.442;2023-05-07T04:21:53;11.02;;;8.88;;
71965;SDS011;59836;52.132;5.442;2023-05-07T04:24:20;10.15;;;8.60;;
71965;SDS011;59836;52.132;5.442;2023-05-07T04:26:46;11.95;;;8.48;;
71965;SDS011;59836;52.132;5.442;2023-05-07T04:29:12;10.27;;;8.27;;
71965;SDS011;59836;52.132;5.442;2023-05-07T04:31:39;10.77;;;8.98;;
71965;SDS011;59836;52.132;5.442;2023-05-07T04:34:05;10.50;;;8.57;;
71965;SDS011;59836;52.132;5.442;2023-05-07T04:36:33;13.75;;;9.07;;
71965;SDS011;59836;52.132;5.442;2023-05-07T04:38:59;10.85;;;8.30;;
71965;SDS011;59836;52.132;5.442;2023-05-07T04:41:26;12.67;;;8.97;;
71965;SDS011;59836;52.132;5.442;2023-05-07T04:43:52;11.13;;;8.57;;
71965;SDS011;59836;52.132;5.442;2023-05-07T04:46:19;13.20;;;9.43;;
71965;SDS011;59836;52.132;5.442;2023-05-07T04:48:45;11.02;;;8.82;;
71965;SDS011;59836;52.132;5.442;2023-05-07T04:51:12;11.93;;;8.75;;
71965;SDS011;59836;52.132;5.442;2023-05-07T04:53:38;9.93;;;8.60;;
71965;SDS011;59836;52.132;5.442;2023-05-07T04:56:04;12.02;;;9.43;;
71965;SDS011;59836;52.132;5.442;2023-05-07T04:58:31;9.35;;;8.10;;
71965;SDS011;59836;52.132;5.442;2023-05-07T05:00:58;11.70;;;9.38;;
71965;SDS011;59836;52.132;5.442;2023-05-07T05:03:26;9.38;;;8.35;;
71965;SDS011;59836;52.132;5.442;2023-05-07T05:05:53;11.40;;;9.10;;
71965;SDS011;59836;52.132;5.442;2023-05-07T05:08:19;11.40;;;9.40;;
71965;SDS011;59836;52.132;5.442;2023-05-07T05:10:46;11.93;;;8.57;;
71965;SDS011;59836;52.132;5.442;2023-05-07T05:13:14;13.40;;;9.50;;
71965;SDS011;59836;52.132;5.442;2023-05-07T05:15:41;11.90;;;9.25;;
71965;SDS011;59836;52.132;5.442;2023-05-07T05:18:07;12.53;;;9.30;;
71965;SDS011;59836;52.132;5.442;2023-05-07T05:20:34;12.90;;;9.93;;
71965;SDS011;59836;52.132;5.442;2023-05-07T05:23:01;12.32;;;8.77;;
71965;SDS011;59836;52.132;5.442;2023-05-07T05:25:27;11.25;;;8.43;;
71965;SDS011;59836;52.132;5.442;2023-05-07T05:27:54;11.35;;;8.88;;
71965;SDS011;59836;52.132;5.442;2023-05-07T05:30:20;12.07;;;9.70;;
71965;SDS011;59836;52.132;5.442;2023-05-07T05:32:48;12.18;;;8.85;;
71965;SDS011;59836;52.132;5.442;2023-05-07T05:35:14;14.27;;;9.68;;
71965;SDS011;59836;52.132;5.442;2023-05-07T05:37:41;13.35;;;10.10;;
71965;SDS011;59836;52.132;5.442;2023-05-07T05:40:08;13.00;;;10.00;;
71965;SDS011;59836;52.132;5.442;2023-05-07T05:42:35;12.70;;;9.47;;
71965;SDS011;59836;52.132;5.442;2023-05-07T05:45:01;11.90;;;9.82;;
71965;SDS011;59836;52.132;5.442;2023-05-07T05:47:28;13.00;;;9.80;;
71965;SDS011;59836;52.132;5.442;2023-05-07T05:49:55;14.27;;;10.32;;
71965;SDS011;59836;52.132;5.442;2023-05-07T05:52:21;13.60;;;10.20;;
71965;SDS011;59836;52.132;5.442;2023-05-07T05:54:49;11.67;;;9.83;;
71965;SDS011;59836;52.132;5.442;2023-05-07T05:57:16;12.50;;;10.13;;
71965;SDS011;59836;52.132;5.442;2023-05-07T05:59:42;14.38;;;10.60;;
71965;SDS011;59836;52.132;5.442;2023-05-07T06:02:09;13.52;;;10.05;;
71965;SDS011;59836;52.132;5.442;2023-05-07T06:04:36;14.98;;;11.00;;
71965;SDS011;59836;52.132;5.442;2023-05-07T06:07:02;14.13;;;10.07;;
71965;SDS011;59836;52.132;5.442;2023-05-07T06:09:29;14.50;;;10.45;;
71965;SDS011;59836;52.132;5.442;2023-05-07T06:11:55;16.02;;;11.27;;
71965;SDS011;59836;52.132;5.442;2023-05-07T06:14:25;15.05;;;10.90;;
71965;SDS011;59836;52.132;5.442;2023-05-07T06:16:51;14.23;;;10.82;;
71965;SDS011;59836;52.132;5.442;2023-05-07T06:19:18;13.83;;;10.23;;
71965;SDS011;59836;52.132;5.442;2023-05-07T06:21:49;13.20;;;10.30;;
71965;SDS011;59836;52.132;5.442;2023-05-07T06:24:16;14.75;;;10.82;;
71965;SDS011;59836;52.132;5.442;2023-05-07T06:26:42;14.15;;;10.63;;
71965;SDS011;59836;52.132;5.442;2023-05-07T06:29:09;14.75;;;10.75;;
71965;SDS011;59836;52.132;5.442;2023-05-07T06:31:35;14.93;;;10.57;;
71965;SDS011;59836;52.132;5.442;2023-05-07T06:34:02;15.90;;;10.93;;
71965;SDS011;59836;52.132;5.442;2023-05-07T06:36:28;13.85;;;10.30;;
71965;SDS011;59836;52.132;5.442;2023-05-07T06:38:55;14.18;;;10.82;;
71965;SDS011;59836;52.132;5.442;2023-05-07T06:41:21;14.27;;;11.00;;
71965;SDS011;59836;52.132;5.442;2023-05-07T06:43:48;15.93;;;11.20;;
71965;SDS011;59836;52.132;5.442;2023-05-07T06:46:15;14.45;;;11.77;;
71965;SDS011;59836;52.132;5.442;2023-05-07T06:48:42;16.48;;;10.27;;
71965;SDS011;59836;52.132;5.442;2023-05-07T06:51:08;13.40;;;10.38;;
71965;SDS011;59836;52.132;5.442;2023-05-07T06:53:35;16.50;;;12.02;;
71965;SDS011;59836;52.132;5.442;2023-05-07T06:56:01;14.17;;;11.50;;
71965;SDS011;59836;52.132;5.442;2023-05-07T06:58:28;15.05;;;11.07;;
71965;SDS011;59836;52.132;5.442;2023-05-07T07:00:54;16.02;;;11.35;;
71965;SDS011;59836;52.132;5.442;2023-05-07T07:03:20;15.32;;;11.20;;
71965;SDS011;59836;52.132;5.442;2023-05-07T07:05:47;15.15;;;11.52;;
71965;SDS011;59836;52.132;5.442;2023-05-07T07:08:13;17.07;;;12.47;;
71965;SDS011;59836;52.132;5.442;2023-05-07T07:10:40;15.90;;;11.73;;
71965;SDS011;59836;52.132;5.442;2023-05-07T07:13:07;15.48;;;11.13;;
71965;SDS011;59836;52.132;5.442;2023-05-07T07:15:33;15.35;;;11.38;;
71965;SDS011;59836;52.132;5.442;2023-05-07T07:17:59;15.68;;;11.98;;
71965;SDS011;59836;52.132;5.442;2023-05-07T07:20:26;16.90;;;11.80;;
71965;SDS011;59836;52.132;5.442;2023-05-07T07:22:52;17.77;;;13.15;;
71965;SDS011;59836;52.132;5.442;2023-05-07T07:25:19;14.82;;;11.95;;
71965;SDS011;59836;52.132;5.442;2023-05-07T07:27:45;17.50;;;12.07;;
71965;SDS011;59836;52.132;5.442;2023-05-07T07:30:12;16.02;;;11.90;;
71965;SDS011;59836;52.132;5.442;2023-05-07T07:32:38;14.70;;;11.43;;
71965;SDS011;59836;52.132;5.442;2023-05-07T07:35:05;14.80;;;11.57;;
71965;SDS011;59836;52.132;5.442;2023-05-07T07:37:32;15.57;;;11.57;;
71965;SDS011;59836;52.132;5.442;2023-05-07T07:39:59;15.20;;;11.45;;
71965;SDS011;59836;52.132;5.442;2023-05-07T07:42:26;14.93;;;11.55;;
71965;SDS011;59836;52.132;5.442;2023-05-07T07:44:52;15.30;;;12.07;;
71965;SDS011;59836;52.132;5.442;2023-05-07T07:47:18;15.23;;;11.82;;
71965;SDS011;59836;52.132;5.442;2023-05-07T07:49:45;18.02;;;11.25;;
71965;SDS011;59836;52.132;5.442;2023-05-07T07:52:12;16.33;;;12.50;;
71965;SDS011;59836;52.132;5.442;2023-05-07T07:54:38;16.52;;;12.45;;
71965;SDS011;59836;52.132;5.442;2023-05-07T07:57:04;16.43;;;12.03;;
71965;SDS011;59836;52.132;5.442;2023-05-07T07:59:31;15.57;;;12.52;;
71965;SDS011;59836;52.132;5.442;2023-05-07T08:01:57;16.20;;;12.25;;
71965;SDS011;59836;52.132;5.442;2023-05-07T08:04:24;17.80;;;12.40;;
71965;SDS011;59836;52.132;5.442;2023-05-07T08:06:50;16.05;;;12.27;;
71965;SDS011;59836;52.132;5.442;2023-05-07T08:09:17;15.90;;;12.43;;
71965;SDS011;59836;52.132;5.442;2023-05-07T08:11:43;16.27;;;12.45;;
71965;SDS011;59836;52.132;5.442;2023-05-07T08:14:09;17.50;;;12.68;;
71965;SDS011;59836;52.132;5.442;2023-05-07T08:16:36;16.45;;;11.88;;
71965;SDS011;59836;52.132;5.442;2023-05-07T08:19:02;18.65;;;12.90;;
71965;SDS011;59836;52.132;5.442;2023-05-07T08:21:29;17.90;;;13.37;;
71965;SDS011;59836;52.132;5.442;2023-05-07T08:23:59;17.45;;;12.95;;
71965;SDS011;59836;52.132;5.442;2023-05-07T08:26:25;17.20;;;12.40;;
71965;SDS011;59836;52.132;5.442;2023-05-07T08:28:52;18.52;;;12.60;;
71965;SDS011;59836;52.132;5.442;2023-05-07T08:31:18;17.38;;;12.95;;
71965;SDS011;59836;52.132;5.442;2023-05-07T08:33:45;18.30;;;13.67;;
71965;SDS011;59836;52.132;5.442;2023-05-07T08:36:11;16.17;;;12.38;;
71965;SDS011;59836;52.132;5.442;2023-05-07T08:38:38;18.00;;;13.45;;
71965;SDS011;59836;52.132;5.442;2023-05-07T08:41:06;20.40;;;14.07;;
71965;SDS011;59836;52.132;5.442;2023-05-07T08:43:36;19.20;;;13.38;;
71965;SDS011;59836;52.132;5.442;2023-05-07T08:46:06;16.67;;;13.20;;
71965;SDS011;59836;52.132;5.442;2023-05-07T08:48:36;19.65;;;14.05;;
71965;SDS011;59836;52.132;5.442;2023-05-07T08:51:03;18.90;;;12.82;;
71965;SDS011;59836;52.132;5.442;2023-05-07T08:53:29;18.15;;;13.68;;
71965;SDS011;59836;52.132;5.442;2023-05-07T08:55:56;19.77;;;14.00;;
71965;SDS011;59836;52.132;5.442;2023-05-07T08:58:22;16.80;;;13.43;;
71965;SDS011;59836;52.132;5.442;2023-05-07T09:00:48;19.27;;;14.05;;
71965;SDS011;59836;52.132;5.442;2023-05-07T09:03:17;20.58;;;14.43;;
71965;SDS011;59836;52.132;5.442;2023-05-07T09:05:44;19.88;;;13.73;;
71965;SDS011;59836;52.132;5.442;2023-05-07T09:08:14;18.98;;;13.98;;
71965;SDS011;59836;52.132;5.442;2023-05-07T09:10:41;18.93;;;13.53;;
71965;SDS011;59836;52.132;5.442;2023-05-07T09:13:08;18.85;;;13.90;;
71965;SDS011;59836;52.132;5.442;2023-05-07T09:15:36;19.10;;;15.15;;
71965;SDS011;59836;52.132;5.442;2023-05-07T09:18:03;20.40;;;14.23;;
71965;SDS011;59836;52.132;5.442;2023-05-07T09:20:30;20.15;;;14.85;;
71965;SDS011;59836;52.132;5.442;2023-05-07T09:22:56;21.97;;;15.23;;
71965;SDS011;59836;52.132;5.442;2023-05-07T09:25:32;18.23;;;14.07;;
71965;SDS011;59836;52.132;5.442;2023-05-07T09:28:00;21.42;;;13.23;;
71965;SDS011;59836;52.132;5.442;2023-05-07T09:30:30;21.35;;;14.45;;
71965;SDS011;59836;52.132;5.442;2023-05-07T09:32:58;19.45;;;14.02;;
71965;SDS011;59836;52.132;5.442;2023-05-07T09:35:25;17.80;;;12.83;;
71965;SDS011;59836;52.132;5.442;2023-05-07T09:37:55;17.83;;;13.32;;
71965;SDS011;59836;52.132;5.442;2023-05-07T09:40:26;17.33;;;13.57;;
71965;SDS011;59836;52.132;5.442;2023-05-07T09:42:54;20.02;;;13.30;;
71965;SDS011;59836;52.132;5.442;2023-05-07T09:45:21;19.33;;;13.52;;
71965;SDS011;59836;52.132;5.442;2023-05-07T09:47:49;24.00;;;13.57;;
71965;SDS011;59836;52.132;5.442;2023-05-07T09:50:22;19.52;;;13.88;;
71965;SDS011;59836;52.132;5.442;2023-05-07T09:53:01;18.52;;;12.50;;
71965;SDS011;59836;52.132;5.442;2023-05-07T09:55:29;18.50;;;13.10;;
71965;SDS011;59836;52.132;5.442;2023-05-07T09:57:56;20.67;;;13.68;;
71965;SDS011;59836;52.132;5.442;2023-05-07T10:00:23;19.90;;;13.63;;
71965;SDS011;59836;52.132;5.442;2023-05-07T10:02:51;18.80;;;13.88;;
71965;SDS011;59836;52.132;5.442;2023-05-07T10:05:19;21.45;;;13.60;;
71965;SDS011;59836;52.132;5.442;2023-05-07T10:07:49;19.38;;;13.85;;
71965;SDS011;59836;52.132;5.442;2023-05-07T10:10:16;18.83;;;14.02;;
71965;SDS011;59836;52.132;5.442;2023-05-07T10:12:43;21.27;;;14.27;;
71965;SDS011;59836;52.132;5.442;2023-05-07T10:15:11;19.67;;;14.23;;
71965;SDS011;59836;52.132;5.442;2023-05-07T10:17:39;20.20;;;12.80;;
71965;SDS011;59836;52.132;5.442;2023-05-07T10:20:06;20.08;;;14.40;;
71965;SDS011;59836;52.132;5.442;2023-05-07T10:22:37;18.83;;;13.82;;
71965;SDS011;59836;52.132;5.442;2023-05-07T10:25:08;19.03;;;12.87;;
71965;SDS011;59836;52.132;5.442;2023-05-07T10:27:42;18.77;;;13.60;;
71965;SDS011;59836;52.132;5.442;2023-05-07T10:33:06;18.58;;;13.77;;
71965;SDS011;59836;52.132;5.442;2023-05-07T10:35:40;20.40;;;13.93;;
71965;SDS011;59836;52.132;5.442;2023-05-07T10:38:08;18.20;;;12.63;;
71965;SDS011;59836;52.132;5.442;2023-05-07T10:40:35;17.77;;;13.25;;
71965;SDS011;59836;52.132;5.442;2023-05-07T10:43:03;18.77;;;13.27;;
71965;SDS011;59836;52.132;5.442;2023-05-07T10:45:36;20.48;;;13.23;;
71965;SDS011;59836;52.132;5.442;2023-05-07T10:51:38;19.17;;;13.20;;
71965;SDS011;59836;52.132;5.442;2023-05-07T10:53:46;19.20;;;12.73;;
71965;SDS011;59836;52.132;5.442;2023-05-07T10:58:46;18.73;;;13.48;;
71965;SDS011;59836;52.132;5.442;2023-05-07T11:01:12;18.38;;;13.30;;
71965;SDS011;59836;52.132;5.442;2023-05-07T11:04:12;20.73;;;13.27;;
71965;SDS011;59836;52.132;5.442;2023-05-07T11:06:40;19.13;;;13.35;;
71965;SDS011;59836;52.132;5.442;2023-05-07T11:09:07;18.27;;;13.07;;
71965;SDS011;59836;52.132;5.442;2023-05-07T11:11:49;18.40;;;12.63;;
71965;SDS011;59836;52.132;5.442;2023-05-07T11:17:07;19.23;;;14.67;;
71965;SDS011;59836;52.132;5.442;2023-05-07T11:19:50;21.13;;;14.45;;
71965;SDS011;59836;52.132;5.442;2023-05-07T11:24:59;19.38;;;14.15;;
71965;SDS011;59836;52.132;5.442;2023-05-07T11:27:26;19.92;;;14.00;;
71965;SDS011;59836;52.132;5.442;2023-05-07T11:29:53;20.17;;;14.53;;
71965;SDS011;59836;52.132;5.442;2023-05-07T11:32:26;18.95;;;14.20;;
71965;SDS011;59836;52.132;5.442;2023-05-07T11:34:58;19.95;;;14.13;;
71965;SDS011;59836;52.132;5.442;2023-05-07T11:37:25;19.63;;;14.75;;
71965;SDS011;59836;52.132;5.442;2023-05-07T11:40:02;20.38;;;13.98;;
71965;SDS011;59836;52.132;5.442;2023-05-07T11:42:35;19.73;;;14.37;;
71965;SDS011;59836;52.132;5.442;2023-05-07T11:45:04;23.23;;;15.05;;
71965;SDS011;59836;52.132;5.442;2023-05-07T11:47:32;20.20;;;14.35;;
71965;SDS011;59836;52.132;5.442;2023-05-07T11:50:03;21.30;;;15.00;;
71965;SDS011;59836;52.132;5.442;2023-05-07T11:52:31;19.77;;;14.55;;
71965;SDS011;59836;52.132;5.442;2023-05-07T11:54:59;21.03;;;14.77;;
71965;SDS011;59836;52.132;5.442;2023-05-07T11:57:26;21.75;;;15.15;;
71965;SDS011;59836;52.132;5.442;2023-05-07T11:59:53;22.27;;;15.35;;
71965;SDS011;59836;52.132;5.442;2023-05-07T12:02:24;20.80;;;14.18;;
71965;SDS011;59836;52.132;5.442;2023-05-07T12:04:52;21.85;;;15.02;;
71965;SDS011;59836;52.132;5.442;2023-05-07T12:07:19;21.23;;;14.70;;
71965;SDS011;59836;52.132;5.442;2023-05-07T12:09:46;21.33;;;14.65;;
71965;SDS011;59836;52.132;5.442;2023-05-07T12:12:14;19.35;;;14.18;;
71965;SDS011;59836;52.132;5.442;2023-05-07T12:14:44;21.63;;;14.98;;
71965;SDS011;59836;52.132;5.442;2023-05-07T12:17:12;19.67;;;14.05;;
71965;SDS011;59836;52.132;5.442;2023-05-07T12:19:40;20.47;;;13.97;;
71965;SDS011;59836;52.132;5.442;2023-05-07T12:22:08;22.45;;;15.30;;
71965;SDS011;59836;52.132;5.442;2023-05-07T12:24:42;20.23;;;14.43;;
71965;SDS011;59836;52.132;5.442;2023-05-07T12:27:10;19.88;;;15.15;;
71965;SDS011;59836;52.132;5.442;2023-05-07T12:29:36;19.63;;;14.00;;
71965;SDS011;59836;52.132;5.442;2023-05-07T12:32:06;18.17;;;14.27;;
71965;SDS011;59836;52.132;5.442;2023-05-07T12:34:33;18.33;;;13.25;;
71965;SDS011;59836;52.132;5.442;2023-05-07T12:37:01;17.88;;;13.88;;
71965;SDS011;59836;52.132;5.442;2023-05-07T12:39:28;18.65;;;13.98;;
71965;SDS011;59836;52.132;5.442;2023-05-07T12:41:58;18.65;;;13.43;;
71965;SDS011;59836;52.132;5.442;2023-05-07T12:44:28;16.43;;;12.13;;
71965;SDS011;59836;52.132;5.442;2023-05-07T12:46:56;13.07;;;10.93;;
71965;SDS011;59836;52.132;5.442;2023-05-07T12:49:23;13.60;;;9.82;;
71965;SDS011;59836;52.132;5.442;2023-05-07T12:51:50;15.00;;;9.50;;
71965;SDS011;59836;52.132;5.442;2023-05-07T12:54:30;13.45;;;10.02;;
71965;SDS011;59836;52.132;5.442;2023-05-07T12:57:07;12.10;;;9.57;;
71965;SDS011;59836;52.132;5.442;2023-05-07T12:59:41;13.15;;;9.90;;
71965;SDS011;59836;52.132;5.442;2023-05-07T13:02:08;12.73;;;10.02;;
71965;SDS011;59836;52.132;5.442;2023-05-07T13:04:35;13.93;;;10.75;;
71965;SDS011;59836;52.132;5.442;2023-05-07T13:07:02;12.07;;;9.73;;
71965;SDS011;59836;52.132;5.442;2023-05-07T13:09:29;12.60;;;9.13;;
71965;SDS011;59836;52.132;5.442;2023-05-07T13:11:55;12.60;;;8.35;;
71965;SDS011;59836;52.132;5.442;2023-05-07T13:14:22;12.55;;;8.68;;
71965;SDS011;59836;52.132;5.442;2023-05-07T13:16:48;12.68;;;8.82;;
71965;SDS011;59836;52.132;5.442;2023-05-07T13:19:15;13.07;;;9.10;;
71965;SDS011;59836;52.132;5.442;2023-05-07T13:21:41;11.73;;;9.10;;
71965;SDS011;59836;52.132;5.442;2023-05-07T13:24:08;12.73;;;9.20;;
71965;SDS011;59836;52.132;5.442;2023-05-07T13:26:34;13.18;;;10.27;;
71965;SDS011;59836;52.132;5.442;2023-05-07T13:29:01;15.73;;;11.85;;
71965;SDS011;59836;52.132;5.442;2023-05-07T13:31:27;16.15;;;12.02;;
71965;SDS011;59836;52.132;5.442;2023-05-07T13:33:54;15.60;;;11.07;;
71965;SDS011;59836;52.132;5.442;2023-05-07T13:36:22;16.13;;;11.52;;
71965;SDS011;59836;52.132;5.442;2023-05-07T13:38:50;13.65;;;11.23;;
71965;SDS011;59836;52.132;5.442;2023-05-07T13:41:17;14.95;;;10.65;;
71965;SDS011;59836;52.132;5.442;2023-05-07T13:43:44;14.57;;;10.93;;
71965;SDS011;59836;52.132;5.442;2023-05-07T13:46:10;19.30;;;11.40;;
71965;SDS011;59836;52.132;5.442;2023-05-07T13:48:37;14.73;;;11.23;;
71965;SDS011;59836;52.132;5.442;2023-05-07T13:51:03;15.60;;;11.85;;
71965;SDS011;59836;52.132;5.442;2023-05-07T13:53:30;15.35;;;11.32;;
71965;SDS011;59836;52.132;5.442;2023-05-07T13:55:57;15.23;;;11.30;;
71965;SDS011;59836;52.132;5.442;2023-05-07T13:58:23;15.70;;;11.33;;
71965;SDS011;59836;52.132;5.442;2023-05-07T14:00:49;14.75;;;11.25;;
71965;SDS011;59836;52.132;5.442;2023-05-07T14:03:16;15.00;;;11.27;;
71965;SDS011;59836;52.132;5.442;2023-05-07T14:05:43;15.15;;;11.57;;
71965;SDS011;59836;52.132;5.442;2023-05-07T14:08:10;15.60;;;10.95;;
71965;SDS011;59836;52.132;5.442;2023-05-07T14:10:37;14.53;;;10.07;;
71965;SDS011;59836;52.132;5.442;2023-05-07T14:13:03;14.70;;;10.77;;
71965;SDS011;59836;52.132;5.442;2023-05-07T14:15:30;15.23;;;11.10;;
71965;SDS011;59836;52.132;5.442;2023-05-07T14:17:58;15.55;;;11.98;;
71965;SDS011;59836;52.132;5.442;2023-05-07T14:20:25;18.48;;;12.52;;
71965;SDS011;59836;52.132;5.442;2023-05-07T14:22:52;17.87;;;11.93;;
71965;SDS011;59836;52.132;5.442;2023-05-07T14:25:18;17.52;;;12.35;;
71965;SDS011;59836;52.132;5.442;2023-05-07T14:27:45;17.10;;;11.95;;
71965;SDS011;59836;52.132;5.442;2023-05-07T14:30:11;16.60;;;12.70;;
71965;SDS011;59836;52.132;5.442;2023-05-07T14:32:38;17.13;;;12.38;;
71965;SDS011;59836;52.132;5.442;2023-05-07T14:35:04;16.67;;;11.90;;
71965;SDS011;59836;52.132;5.442;2023-05-07T14:37:31;17.38;;;11.27;;
71965;SDS011;59836;52.132;5.442;2023-05-07T14:39:57;15.35;;;11.02;;
71965;SDS011;59836;52.132;5.442;2023-05-07T14:42:24;15.20;;;11.00;;
71965;SDS011;59836;52.132;5.442;2023-05-07T14:44:50;14.48;;;10.85;;
71965;SDS011;59836;52.132;5.442;2023-05-07T14:47:17;12.50;;;9.40;;